ADDS METAR Data INFO
IDs: Format: Raw Decoded Include TAF

Data at: 1435 UTC 22 Feb 2018

KACY 221354Z 05015G27KT 10SM OVC031 11/05 A3051 RMK AO2 PK WND 06027/1350 SLP329 T01060050 $
KACY 221254Z 07015G22KT 10SM OVC034 12/04 A3049 RMK AO2 SLP324 T01170044 $
KACY 221154Z 06010KT 10SM OVC030 13/03 A3047 RMK AO2 SLP318 T01330028 10172 20133 53010 $
KACY 221054Z 04010KT 10SM OVC032 14/08 A3046 RMK AO2 SLP313 T01390078 $
KACY 221013Z 05009KT 10SM OVC030 14/10 A3045 RMK AO2 T01440100 $
KACY 220954Z 03007KT 10SM OVC023 14/11 A3046 RMK AO2 SLP312 T01440106 $
KACY 220854Z 05010KT 10SM OVC025 14/11 A3044 RMK AO2 SLP308 T01440111 51015 $
KACY 220754Z 04005KT 10SM OVC026 16/11 A3044 RMK AO2 SLP306 T01560111 $
KACY 220654Z 01008KT 10SM OVC022 16/13 A3042 RMK AO2 SLP300 T01610128 $
KACY 220554Z 01007KT 10SM OVC021 17/15 A3040 RMK AO2 SLP293 T01720150 10172 20128 53022 $
KACY 220525Z 01005KT 10SM BKN024 OVC100 13/12 A3039 RMK AO2 T01330122 $
KACY 220454Z 00000KT 10SM FEW095 13/13 A3037 RMK AO2 SLP284 T01330128 402440117 $
KACY 220354Z 00000KT 10SM FEW085 14/13 A3034 RMK AO2 SLP274 T01440128 $
KACY 212354Z 19004KT 10SM CLR 17/13 A3031 RMK AO2 SLP263 T01670128 10244 20167 53012 $
KACY 212254Z 21006KT 10SM CLR 22/16 A3029 RMK AO2 SLP256 T02220161 $
KACY 212154Z 21010KT 10SM CLR 23/17 A3028 RMK AO2 SLP253 T02330167 $
KACY 212054Z 22011G19KT 10SM CLR 24/17 A3028 RMK AO2 SLP251 T02440167 55008 $
KACY 211954Z 22014G25KT 10SM CLR 24/17 A3027 RMK AO2 SLP251 T02390167 $
KACY 211854Z 23014G27KT 10SM CLR 23/17 A3028 RMK AO2 PK WND 21027/1756 SLP252 T02330172 $
KACY 211754Z 23015G24KT 10SM CLR 23/17 A3030 RMK AO2 PK WND 23029/1722 SLP260 T02280167 10228 20122 58019 $
KACY 211715Z 22015G24KT 10SM SCT019 22/17 A3032 RMK AO2 T02170167 $
KACY 211654Z 23011G23KT 10SM BKN019 22/17 A3033 RMK AO2 PK WND 21031/1622 SLP271 T02170167 $
KACY 211554Z 23015G23KT 10SM BKN015 21/17 A3034 RMK AO2 SLP275 T02060172 $
KACY 211506Z 23012G24KT 10SM OVC010 19/17 A3035 RMK AO2 T01890172 $
KACY 211454Z 24010G19KT 10SM OVC009 18/17 A3036 RMK AO2 CIG 008V013 SLP279 T01830172 51001 $
KACY 211354Z 20006KT 7SM OVC007 14/14 A3036 RMK AO2 CIG 003V010 SLP279 T01440144 $
KACY 211328Z 19005KT 6SM BR OVC006 14/14 A3035 RMK AO2 CIG 003V009 T01390139 $
KACY 211254Z 19007KT 1/2SM BR SCT002 OVC008 13/13 A3036 RMK AO2 SFC VIS 5 SLP279 T01280128 $
KACY 210754Z 17006KT 1 1/2SM BR OVC002 12/12 A3035 RMK AO2 SLP278 T01220122 $
KACY 210737Z 17008KT 1 3/4SM BR BKN002 BKN028 OVC046 12/12 A3036 RMK AO2 T01220122 $
KACY 210732Z 16010KT 2 1/2SM BR SCT003 BKN028 BKN046 12/12 A3036 RMK AO2 T01220122 $
KACY 210721Z 16008KT 7SM FEW003 FEW026 BKN046 13/13 A3036 RMK AO2 T01280128 $
KACY 210654Z 18007KT 9SM BKN048 13/13 A3036 RMK AO2 SLP280 T01330133 $
KACY 210554Z 16010KT 10SM BKN035 BKN047 13/13 A3037 RMK AO2 SLP282 T01330128 10161 20128 50001 $